sensor_id;sensor_type;location;lat;lon;timestamp;P1;durP1;ratioP1;P2;durP2;ratioP2
28607;SDS011;15802;45.654;13.804;2023-01-15T00:01:46;4.88;;;2.33;;
28607;SDS011;15802;45.654;13.804;2023-01-15T00:04:11;5.55;;;2.72;;
28607;SDS011;15802;45.654;13.804;2023-01-15T00:06:39;6.47;;;2.38;;
28607;SDS011;15802;45.654;13.804;2023-01-15T00:09:06;4.97;;;2.58;;
28607;SDS011;15802;45.654;13.804;2023-01-15T00:11:32;4.38;;;2.58;;
28607;SDS011;15802;45.654;13.804;2023-01-15T00:13:58;3.90;;;2.28;;
28607;SDS011;15802;45.654;13.804;2023-01-15T00:16:24;5.22;;;2.75;;
28607;SDS011;15802;45.654;13.804;2023-01-15T00:18:55;5.53;;;2.33;;
28607;SDS011;15802;45.654;13.804;2023-01-15T00:21:23;4.23;;;2.57;;
28607;SDS011;15802;45.654;13.804;2023-01-15T00:23:50;4.05;;;2.60;;
28607;SDS011;15802;45.654;13.804;2023-01-15T00:26:35;5.03;;;2.75;;
28607;SDS011;15802;45.654;13.804;2023-01-15T00:29:20;5.35;;;2.20;;
28607;SDS011;15802;45.654;13.804;2023-01-15T00:31:51;3.95;;;2.20;;
28607;SDS011;15802;45.654;13.804;2023-01-15T00:34:20;3.80;;;1.95;;
28607;SDS011;15802;45.654;13.804;2023-01-15T00:36:46;3.65;;;1.90;;
28607;SDS011;15802;45.654;13.804;2023-01-15T00:39:12;4.05;;;1.90;;
28607;SDS011;15802;45.654;13.804;2023-01-15T00:41:38;3.92;;;1.95;;
28607;SDS011;15802;45.654;13.804;2023-01-15T00:44:04;3.15;;;1.50;;
28607;SDS011;15802;45.654;13.804;2023-01-15T00:46:29;3.60;;;1.83;;
28607;SDS011;15802;45.654;13.804;2023-01-15T00:48:55;4.68;;;1.92;;
28607;SDS011;15802;45.654;13.804;2023-01-15T00:51:21;3.83;;;1.60;;
28607;SDS011;15802;45.654;13.804;2023-01-15T00:53:47;3.17;;;1.50;;
28607;SDS011;15802;45.654;13.804;2023-01-15T00:56:13;3.17;;;1.83;;
28607;SDS011;15802;45.654;13.804;2023-01-15T00:58:39;3.20;;;1.70;;
28607;SDS011;15802;45.654;13.804;2023-01-15T01:01:04;2.67;;;1.65;;
28607;SDS011;15802;45.654;13.804;2023-01-15T01:03:30;3.55;;;1.48;;
28607;SDS011;15802;45.654;13.804;2023-01-15T01:06:00;2.72;;;1.60;;
28607;SDS011;15802;45.654;13.804;2023-01-15T01:08:26;3.63;;;1.67;;
28607;SDS011;15802;45.654;13.804;2023-01-15T01:11:08;3.45;;;1.38;;
28607;SDS011;15802;45.654;13.804;2023-01-15T01:13:37;4.60;;;2.20;;
28607;SDS011;15802;45.654;13.804;2023-01-15T01:16:03;3.08;;;1.40;;
28607;SDS011;15802;45.654;13.804;2023-01-15T01:18:45;4.95;;;1.83;;
28607;SDS011;15802;45.654;13.804;2023-01-15T01:21:11;2.95;;;1.38;;
28607;SDS011;15802;45.654;13.804;2023-01-15T01:23:36;2.97;;;1.30;;
28607;SDS011;15802;45.654;13.804;2023-01-15T01:26:02;3.65;;;1.42;;
28607;SDS011;15802;45.654;13.804;2023-01-15T01:28:28;3.25;;;1.45;;
28607;SDS011;15802;45.654;13.804;2023-01-15T01:30:54;3.33;;;1.40;;
28607;SDS011;15802;45.654;13.804;2023-01-15T01:33:20;3.50;;;1.50;;
28607;SDS011;15802;45.654;13.804;2023-01-15T01:35:47;3.67;;;1.30;;
28607;SDS011;15802;45.654;13.804;2023-01-15T01:38:14;2.65;;;1.40;;
28607;SDS011;15802;45.654;13.804;2023-01-15T01:40:40;4.32;;;1.40;;
28607;SDS011;15802;45.654;13.804;2023-01-15T01:43:22;3.13;;;1.50;;
28607;SDS011;15802;45.654;13.804;2023-01-15T01:45:51;2.70;;;1.13;;
28607;SDS011;15802;45.654;13.804;2023-01-15T01:48:17;3.40;;;1.30;;
28607;SDS011;15802;45.654;13.804;2023-01-15T01:50:50;2.80;;;1.10;;
28607;SDS011;15802;45.654;13.804;2023-01-15T01:53:20;1.95;;;1.00;;
28607;SDS011;15802;45.654;13.804;2023-01-15T01:55:48;3.17;;;1.10;;
28607;SDS011;15802;45.654;13.804;2023-01-15T01:58:15;4.10;;;1.63;;
28607;SDS011;15802;45.654;13.804;2023-01-15T02:00:44;3.03;;;1.50;;
28607;SDS011;15802;45.654;13.804;2023-01-15T02:03:12;2.58;;;1.50;;
28607;SDS011;15802;45.654;13.804;2023-01-15T02:05:39;3.10;;;1.30;;
28607;SDS011;15802;45.654;13.804;2023-01-15T02:08:11;3.70;;;1.35;;
28607;SDS011;15802;45.654;13.804;2023-01-15T02:10:37;2.30;;;1.20;;
28607;SDS011;15802;45.654;13.804;2023-01-15T02:13:21;4.45;;;1.38;;
28607;SDS011;15802;45.654;13.804;2023-01-15T02:16:25;2.80;;;1.27;;
28607;SDS011;15802;45.654;13.804;2023-01-15T02:19:20;3.40;;;1.00;;
28607;SDS011;15802;45.654;13.804;2023-01-15T02:22:13;1.90;;;0.93;;
28607;SDS011;15802;45.654;13.804;2023-01-15T02:28:06;1.95;;;0.95;;
28607;SDS011;15802;45.654;13.804;2023-01-15T02:30:41;2.75;;;1.30;;
28607;SDS011;15802;45.654;13.804;2023-01-15T02:33:13;3.55;;;1.60;;
28607;SDS011;15802;45.654;13.804;2023-01-15T02:35:46;2.85;;;1.50;;
28607;SDS011;15802;45.654;13.804;2023-01-15T02:38:18;2.33;;;1.20;;
28607;SDS011;15802;45.654;13.804;2023-01-15T02:40:47;2.63;;;1.15;;
28607;SDS011;15802;45.654;13.804;2023-01-15T02:43:17;2.08;;;1.17;;
28607;SDS011;15802;45.654;13.804;2023-01-15T02:45:45;4.72;;;1.25;;
28607;SDS011;15802;45.654;13.804;2023-01-15T02:48:14;2.55;;;1.10;;
28607;SDS011;15802;45.654;13.804;2023-01-15T02:50:44;3.53;;;1.10;;
28607;SDS011;15802;45.654;13.804;2023-01-15T02:53:17;3.05;;;1.00;;
28607;SDS011;15802;45.654;13.804;2023-01-15T02:55:48;1.52;;;0.95;;
28607;SDS011;15802;45.654;13.804;2023-01-15T02:58:17;2.08;;;1.20;;
28607;SDS011;15802;45.654;13.804;2023-01-15T03:00:46;3.28;;;0.90;;
28607;SDS011;15802;45.654;13.804;2023-01-15T03:03:20;2.33;;;1.00;;
28607;SDS011;15802;45.654;13.804;2023-01-15T03:05:55;1.75;;;0.80;;
28607;SDS011;15802;45.654;13.804;2023-01-15T03:08:28;2.45;;;1.10;;
28607;SDS011;15802;45.654;13.804;2023-01-15T03:11:05;1.80;;;1.30;;
28607;SDS011;15802;45.654;13.804;2023-01-15T03:16:31;3.22;;;1.17;;
28607;SDS011;15802;45.654;13.804;2023-01-15T03:19:05;2.28;;;1.20;;
28607;SDS011;15802;45.654;13.804;2023-01-15T03:21:40;1.48;;;0.93;;
28607;SDS011;15802;45.654;13.804;2023-01-15T03:24:18;1.20;;;0.88;;
28607;SDS011;15802;45.654;13.804;2023-01-15T03:26:49;1.65;;;0.82;;
28607;SDS011;15802;45.654;13.804;2023-01-15T03:29:17;1.48;;;0.90;;
28607;SDS011;15802;45.654;13.804;2023-01-15T03:31:44;1.65;;;1.00;;
28607;SDS011;15802;45.654;13.804;2023-01-15T03:34:10;2.20;;;1.10;;
28607;SDS011;15802;45.654;13.804;2023-01-15T03:36:36;5.13;;;1.27;;
28607;SDS011;15802;45.654;13.804;2023-01-15T03:39:02;2.72;;;1.20;;
28607;SDS011;15802;45.654;13.804;2023-01-15T03:41:32;2.45;;;0.98;;
28607;SDS011;15802;45.654;13.804;2023-01-15T03:47:16;2.08;;;0.88;;
28607;SDS011;15802;45.654;13.804;2023-01-15T03:49:55;3.58;;;0.90;;
28607;SDS011;15802;45.654;13.804;2023-01-15T03:52:29;2.55;;;1.10;;
28607;SDS011;15802;45.654;13.804;2023-01-15T03:55:19;2.67;;;1.10;;
28607;SDS011;15802;45.654;13.804;2023-01-15T03:57:52;3.22;;;0.90;;
28607;SDS011;15802;45.654;13.804;2023-01-15T04:02:52;2.35;;;1.30;;
28607;SDS011;15802;45.654;13.804;2023-01-15T04:05:21;2.50;;;1.08;;
28607;SDS011;15802;45.654;13.804;2023-01-15T04:07:49;2.30;;;1.08;;
28607;SDS011;15802;45.654;13.804;2023-01-15T04:10:17;2.95;;;1.10;;
28607;SDS011;15802;45.654;13.804;2023-01-15T04:12:43;3.28;;;0.77;;
28607;SDS011;15802;45.654;13.804;2023-01-15T04:15:09;2.30;;;0.60;;
28607;SDS011;15802;45.654;13.804;2023-01-15T04:17:36;1.50;;;0.70;;
28607;SDS011;15802;45.654;13.804;2023-01-15T04:20:02;1.95;;;0.80;;
28607;SDS011;15802;45.654;13.804;2023-01-15T04:22:28;1.98;;;1.00;;
28607;SDS011;15802;45.654;13.804;2023-01-15T04:24:55;1.52;;;0.85;;
28607;SDS011;15802;45.654;13.804;2023-01-15T04:27:21;1.33;;;0.70;;
28607;SDS011;15802;45.654;13.804;2023-01-15T04:29:47;2.05;;;0.70;;
28607;SDS011;15802;45.654;13.804;2023-01-15T04:32:13;3.72;;;0.60;;
28607;SDS011;15802;45.654;13.804;2023-01-15T04:34:39;2.13;;;0.70;;
28607;SDS011;15802;45.654;13.804;2023-01-15T04:37:05;3.55;;;0.88;;
28607;SDS011;15802;45.654;13.804;2023-01-15T04:39:31;1.23;;;0.50;;
28607;SDS011;15802;45.654;13.804;2023-01-15T04:41:57;1.98;;;0.82;;
28607;SDS011;15802;45.654;13.804;2023-01-15T04:44:41;1.20;;;0.80;;
28607;SDS011;15802;45.654;13.804;2023-01-15T04:47:07;1.92;;;0.80;;
28607;SDS011;15802;45.654;13.804;2023-01-15T04:49:33;1.45;;;0.80;;
28607;SDS011;15802;45.654;13.804;2023-01-15T04:51:59;1.80;;;1.00;;
28607;SDS011;15802;45.654;13.804;2023-01-15T04:54:25;1.70;;;0.95;;
28607;SDS011;15802;45.654;13.804;2023-01-15T04:56:53;1.30;;;0.80;;
28607;SDS011;15802;45.654;13.804;2023-01-15T04:59:20;1.73;;;0.85;;
28607;SDS011;15802;45.654;13.804;2023-01-15T05:01:48;1.70;;;0.93;;
28607;SDS011;15802;45.654;13.804;2023-01-15T05:04:14;2.33;;;1.10;;
28607;SDS011;15802;45.654;13.804;2023-01-15T05:06:39;2.25;;;0.90;;
28607;SDS011;15802;45.654;13.804;2023-01-15T05:09:05;3.63;;;0.93;;
28607;SDS011;15802;45.654;13.804;2023-01-15T05:11:35;2.40;;;0.80;;
28607;SDS011;15802;45.654;13.804;2023-01-15T05:14:02;1.85;;;0.82;;
28607;SDS011;15802;45.654;13.804;2023-01-15T05:16:29;2.97;;;0.88;;
28607;SDS011;15802;45.654;13.804;2023-01-15T05:18:57;1.73;;;0.80;;
28607;SDS011;15802;45.654;13.804;2023-01-15T05:21:25;2.45;;;0.90;;
28607;SDS011;15802;45.654;13.804;2023-01-15T05:23:54;1.70;;;0.90;;
28607;SDS011;15802;45.654;13.804;2023-01-15T05:26:21;2.65;;;0.80;;
28607;SDS011;15802;45.654;13.804;2023-01-15T05:28:48;2.45;;;0.90;;
28607;SDS011;15802;45.654;13.804;2023-01-15T05:31:17;2.22;;;1.00;;
28607;SDS011;15802;45.654;13.804;2023-01-15T05:33:44;3.17;;;0.70;;
28607;SDS011;15802;45.654;13.804;2023-01-15T05:36:12;1.85;;;0.80;;
28607;SDS011;15802;45.654;13.804;2023-01-15T05:38:40;2.33;;;0.93;;
28607;SDS011;15802;45.654;13.804;2023-01-15T05:41:09;1.90;;;0.90;;
28607;SDS011;15802;45.654;13.804;2023-01-15T05:43:58;1.73;;;0.90;;
28607;SDS011;15802;45.654;13.804;2023-01-15T05:46:26;2.88;;;1.00;;
28607;SDS011;15802;45.654;13.804;2023-01-15T05:48:51;1.77;;;1.00;;
28607;SDS011;15802;45.654;13.804;2023-01-15T05:51:17;1.98;;;0.90;;
28607;SDS011;15802;45.654;13.804;2023-01-15T05:53:43;2.00;;;0.98;;
28607;SDS011;15802;45.654;13.804;2023-01-15T05:56:09;1.90;;;0.90;;
28607;SDS011;15802;45.654;13.804;2023-01-15T05:58:35;1.58;;;0.80;;
28607;SDS011;15802;45.654;13.804;2023-01-15T06:01:06;3.15;;;1.10;;
28607;SDS011;15802;45.654;13.804;2023-01-15T06:03:32;3.22;;;1.00;;
28607;SDS011;15802;45.654;13.804;2023-01-15T06:05:58;3.10;;;1.13;;
28607;SDS011;15802;45.654;13.804;2023-01-15T06:08:24;2.28;;;0.88;;
28607;SDS011;15802;45.654;13.804;2023-01-15T06:10:50;2.60;;;1.00;;
28607;SDS011;15802;45.654;13.804;2023-01-15T06:13:16;3.22;;;1.02;;
28607;SDS011;15802;45.654;13.804;2023-01-15T06:15:42;2.45;;;0.95;;
28607;SDS011;15802;45.654;13.804;2023-01-15T06:18:09;2.38;;;1.42;;
28607;SDS011;15802;45.654;13.804;2023-01-15T06:20:37;1.85;;;0.95;;
28607;SDS011;15802;45.654;13.804;2023-01-15T06:23:04;3.10;;;1.40;;
28607;SDS011;15802;45.654;13.804;2023-01-15T06:25:31;1.98;;;1.27;;
28607;SDS011;15802;45.654;13.804;2023-01-15T06:28:00;4.65;;;1.45;;
28607;SDS011;15802;45.654;13.804;2023-01-15T06:30:28;3.25;;;1.55;;
28607;SDS011;15802;45.654;13.804;2023-01-15T06:32:54;3.45;;;1.73;;
28607;SDS011;15802;45.654;13.804;2023-01-15T06:35:23;4.38;;;1.60;;
28607;SDS011;15802;45.654;13.804;2023-01-15T06:37:49;5.05;;;1.63;;
28607;SDS011;15802;45.654;13.804;2023-01-15T06:40:15;3.08;;;1.90;;
28607;SDS011;15802;45.654;13.804;2023-01-15T06:42:41;4.43;;;1.73;;
28607;SDS011;15802;45.654;13.804;2023-01-15T06:45:26;3.28;;;1.80;;
28607;SDS011;15802;45.654;13.804;2023-01-15T06:48:12;3.75;;;2.13;;
28607;SDS011;15802;45.654;13.804;2023-01-15T06:50:37;4.85;;;1.92;;
28607;SDS011;15802;45.654;13.804;2023-01-15T06:53:03;3.17;;;1.90;;
28607;SDS011;15802;45.654;13.804;2023-01-15T06:55:29;4.28;;;1.88;;
28607;SDS011;15802;45.654;13.804;2023-01-15T06:57:55;3.90;;;2.15;;
28607;SDS011;15802;45.654;13.804;2023-01-15T07:00:20;5.47;;;1.98;;
28607;SDS011;15802;45.654;13.804;2023-01-15T07:02:49;5.25;;;1.95;;
28607;SDS011;15802;45.654;13.804;2023-01-15T07:05:15;3.65;;;2.10;;
28607;SDS011;15802;45.654;13.804;2023-01-15T07:07:42;5.93;;;2.30;;
28607;SDS011;15802;45.654;13.804;2023-01-15T07:10:08;6.47;;;2.50;;
28607;SDS011;15802;45.654;13.804;2023-01-15T07:12:34;5.82;;;2.17;;
28607;SDS011;15802;45.654;13.804;2023-01-15T07:15:00;5.35;;;2.40;;
28607;SDS011;15802;45.654;13.804;2023-01-15T07:17:26;4.13;;;2.33;;
28607;SDS011;15802;45.654;13.804;2023-01-15T07:19:52;5.93;;;2.30;;
28607;SDS011;15802;45.654;13.804;2023-01-15T07:22:17;6.40;;;2.40;;
28607;SDS011;15802;45.654;13.804;2023-01-15T07:24:43;5.22;;;2.30;;
28607;SDS011;15802;45.654;13.804;2023-01-15T07:27:09;5.85;;;2.65;;
28607;SDS011;15802;45.654;13.804;2023-01-15T07:29:35;4.93;;;2.50;;
28607;SDS011;15802;45.654;13.804;2023-01-15T07:32:00;4.63;;;2.20;;
28607;SDS011;15802;45.654;13.804;2023-01-15T07:34:29;5.20;;;2.60;;
28607;SDS011;15802;45.654;13.804;2023-01-15T07:36:55;4.50;;;2.28;;
28607;SDS011;15802;45.654;13.804;2023-01-15T07:39:20;5.93;;;3.15;;
28607;SDS011;15802;45.654;13.804;2023-01-15T07:41:46;6.40;;;2.88;;
28607;SDS011;15802;45.654;13.804;2023-01-15T07:44:31;5.70;;;3.08;;
28607;SDS011;15802;45.654;13.804;2023-01-15T07:47:23;5.97;;;2.67;;
28607;SDS011;15802;45.654;13.804;2023-01-15T07:50:11;4.93;;;2.72;;
28607;SDS011;15802;45.654;13.804;2023-01-15T07:52:45;6.30;;;3.25;;
28607;SDS011;15802;45.654;13.804;2023-01-15T07:55:11;6.40;;;3.30;;
28607;SDS011;15802;45.654;13.804;2023-01-15T07:57:37;6.50;;;3.50;;
28607;SDS011;15802;45.654;13.804;2023-01-15T08:00:05;5.65;;;3.78;;
28607;SDS011;15802;45.654;13.804;2023-01-15T08:02:32;6.57;;;3.40;;
28607;SDS011;15802;45.654;13.804;2023-01-15T08:04:58;9.85;;;4.00;;
28607;SDS011;15802;45.654;13.804;2023-01-15T08:07:24;12.15;;;3.88;;
28607;SDS011;15802;45.654;13.804;2023-01-15T08:09:50;8.13;;;4.00;;
28607;SDS011;15802;45.654;13.804;2023-01-15T08:12:16;6.88;;;4.20;;
28607;SDS011;15802;45.654;13.804;2023-01-15T08:15:00;6.47;;;3.90;;
28607;SDS011;15802;45.654;13.804;2023-01-15T08:17:43;6.82;;;4.05;;
28607;SDS011;15802;45.654;13.804;2023-01-15T08:20:11;12.00;;;4.43;;
28607;SDS011;15802;45.654;13.804;2023-01-15T08:25:10;7.50;;;4.30;;
28607;SDS011;15802;45.654;13.804;2023-01-15T08:27:38;7.22;;;4.35;;
28607;SDS011;15802;45.654;13.804;2023-01-15T08:30:05;9.32;;;4.60;;
28607;SDS011;15802;45.654;13.804;2023-01-15T08:32:32;8.02;;;5.05;;
28607;SDS011;15802;45.654;13.804;2023-01-15T08:34:58;11.15;;;5.25;;
28607;SDS011;15802;45.654;13.804;2023-01-15T08:37:24;13.80;;;5.05;;
28607;SDS011;15802;45.654;13.804;2023-01-15T08:39:50;9.05;;;5.03;;
28607;SDS011;15802;45.654;13.804;2023-01-15T08:42:17;10.88;;;4.82;;
28607;SDS011;15802;45.654;13.804;2023-01-15T08:44:44;10.80;;;5.25;;
28607;SDS011;15802;45.654;13.804;2023-01-15T08:47:10;7.93;;;5.55;;
28607;SDS011;15802;45.654;13.804;2023-01-15T08:49:36;13.43;;;6.65;;
28607;SDS011;15802;45.654;13.804;2023-01-15T08:52:02;15.43;;;6.32;;
28607;SDS011;15802;45.654;13.804;2023-01-15T08:54:29;13.68;;;5.90;;
28607;SDS011;15802;45.654;13.804;2023-01-15T08:56:55;9.02;;;5.32;;
28607;SDS011;15802;45.654;13.804;2023-01-15T08:59:20;12.25;;;5.72;;
28607;SDS011;15802;45.654;13.804;2023-01-15T09:01:47;9.38;;;5.40;;
28607;SDS011;15802;45.654;13.804;2023-01-15T09:04:14;10.07;;;5.97;;
28607;SDS011;15802;45.654;13.804;2023-01-15T09:06:41;14.40;;;5.50;;
28607;SDS011;15802;45.654;13.804;2023-01-15T09:09:07;10.10;;;5.43;;
28607;SDS011;15802;45.654;13.804;2023-01-15T09:11:34;11.77;;;5.32;;
28607;SDS011;15802;45.654;13.804;2023-01-15T09:14:01;9.95;;;5.97;;
28607;SDS011;15802;45.654;13.804;2023-01-15T09:16:26;9.07;;;5.80;;
28607;SDS011;15802;45.654;13.804;2023-01-15T09:18:54;9.35;;;5.35;;
28607;SDS011;15802;45.654;13.804;2023-01-15T09:21:20;10.82;;;5.35;;
28607;SDS011;15802;45.654;13.804;2023-01-15T09:23:46;13.57;;;6.43;;
28607;SDS011;15802;45.654;13.804;2023-01-15T09:26:29;11.82;;;6.30;;
28607;SDS011;15802;45.654;13.804;2023-01-15T09:28:58;11.30;;;5.65;;
28607;SDS011;15802;45.654;13.804;2023-01-15T09:31:24;12.52;;;5.68;;
28607;SDS011;15802;45.654;13.804;2023-01-15T09:33:50;13.88;;;5.90;;
28607;SDS011;15802;45.654;13.804;2023-01-15T09:36:17;12.63;;;6.43;;
28607;SDS011;15802;45.654;13.804;2023-01-15T09:38:49;10.45;;;5.43;;
28607;SDS011;15802;45.654;13.804;2023-01-15T09:41:16;11.30;;;6.13;;
28607;SDS011;15802;45.654;13.804;2023-01-15T09:44:27;9.85;;;5.75;;
28607;SDS011;15802;45.654;13.804;2023-01-15T09:47:21;11.52;;;5.32;;
28607;SDS011;15802;45.654;13.804;2023-01-15T09:50:29;11.70;;;6.32;;
28607;SDS011;15802;45.654;13.804;2023-01-15T09:56:02;12.30;;;5.65;;
28607;SDS011;15802;45.654;13.804;2023-01-15T09:58:31;11.77;;;6.47;;
28607;SDS011;15802;45.654;13.804;2023-01-15T10:01:00;9.90;;;5.72;;
28607;SDS011;15802;45.654;13.804;2023-01-15T10:03:36;14.93;;;6.63;;
28607;SDS011;15802;45.654;13.804;2023-01-15T10:06:12;12.25;;;6.40;;
28607;SDS011;15802;45.654;13.804;2023-01-15T10:08:44;11.70;;;6.60;;
28607;SDS011;15802;45.654;13.804;2023-01-15T10:11:27;12.05;;;5.75;;
28607;SDS011;15802;45.654;13.804;2023-01-15T10:14:24;12.18;;;6.50;;
28607;SDS011;15802;45.654;13.804;2023-01-15T10:17:03;12.18;;;5.97;;
28607;SDS011;15802;45.654;13.804;2023-01-15T10:22:03;14.65;;;6.35;;
28607;SDS011;15802;45.654;13.804;2023-01-15T10:24:37;11.63;;;6.35;;
28607;SDS011;15802;45.654;13.804;2023-01-15T10:27:28;15.43;;;6.70;;
28607;SDS011;15802;45.654;13.804;2023-01-15T10:30:02;10.90;;;6.00;;
28607;SDS011;15802;45.654;13.804;2023-01-15T10:32:42;12.57;;;7.15;;
28607;SDS011;15802;45.654;13.804;2023-01-15T10:35:25;13.60;;;7.30;;
28607;SDS011;15802;45.654;13.804;2023-01-15T10:43:58;12.98;;;7.20;;
28607;SDS011;15802;45.654;13.804;2023-01-15T10:46:34;15.50;;;7.35;;
28607;SDS011;15802;45.654;13.804;2023-01-15T10:49:04;14.48;;;7.55;;
28607;SDS011;15802;45.654;13.804;2023-01-15T10:51:41;13.45;;;7.10;;
28607;SDS011;15802;45.654;13.804;2023-01-15T10:54:14;12.85;;;7.20;;
28607;SDS011;15802;45.654;13.804;2023-01-15T10:59:41;15.93;;;7.38;;
28607;SDS011;15802;45.654;13.804;2023-01-15T11:02:27;14.27;;;7.15;;
28607;SDS011;15802;45.654;13.804;2023-01-15T11:05:00;11.73;;;7.10;;
28607;SDS011;15802;45.654;13.804;2023-01-15T11:07:32;13.40;;;7.63;;
28607;SDS011;15802;45.654;13.804;2023-01-15T11:10:04;15.00;;;7.85;;
28607;SDS011;15802;45.654;13.804;2023-01-15T11:15:22;15.25;;;8.07;;
28607;SDS011;15802;45.654;13.804;2023-01-15T11:18:12;14.27;;;8.63;;
28607;SDS011;15802;45.654;13.804;2023-01-15T11:21:00;12.40;;;8.63;;
28607;SDS011;15802;45.654;13.804;2023-01-15T11:23:27;14.40;;;8.82;;
28607;SDS011;15802;45.654;13.804;2023-01-15T11:28:29;18.48;;;10.20;;
28607;SDS011;15802;45.654;13.804;2023-01-15T11:30:59;17.25;;;10.65;;
28607;SDS011;15802;45.654;13.804;2023-01-15T11:33:26;18.17;;;10.10;;
28607;SDS011;15802;45.654;13.804;2023-01-15T11:35:54;18.25;;;11.85;;
28607;SDS011;15802;45.654;13.804;2023-01-15T11:38:23;20.40;;;11.38;;
28607;SDS011;15802;45.654;13.804;2023-01-15T11:40:53;21.58;;;11.55;;
28607;SDS011;15802;45.654;13.804;2023-01-15T11:43:24;15.60;;;11.00;;
28607;SDS011;15802;45.654;13.804;2023-01-15T11:46:26;19.13;;;11.40;;
28607;SDS011;15802;45.654;13.804;2023-01-15T11:49:14;19.83;;;11.75;;
28607;SDS011;15802;45.654;13.804;2023-01-15T11:52:02;23.10;;;13.25;;
28607;SDS011;15802;45.654;13.804;2023-01-15T11:54:31;19.45;;;13.45;;
28607;SDS011;15802;45.654;13.804;2023-01-15T11:57:01;22.60;;;14.25;;
28607;SDS011;15802;45.654;13.804;2023-01-15T11:59:28;25.35;;;15.25;;
28607;SDS011;15802;45.654;13.804;2023-01-15T12:02:01;24.65;;;14.25;;
28607;SDS011;15802;45.654;13.804;2023-01-15T12:04:56;22.67;;;14.50;;
28607;SDS011;15802;45.654;13.804;2023-01-15T12:07:25;25.52;;;15.68;;
28607;SDS011;15802;45.654;13.804;2023-01-15T12:13:04;24.45;;;15.13;;
28607;SDS011;15802;45.654;13.804;2023-01-15T12:15:47;24.55;;;15.88;;
28607;SDS011;15802;45.654;13.804;2023-01-15T12:18:32;27.67;;;16.83;;
28607;SDS011;15802;45.654;13.804;2023-01-15T12:24:21;95.75;;;49.45;;
28607;SDS011;15802;45.654;13.804;2023-01-15T12:29:59;90.45;;;48.88;;
28607;SDS011;15802;45.654;13.804;2023-01-15T12:32:32;80.18;;;44.55;;
28607;SDS011;15802;45.654;13.804;2023-01-15T12:35:06;65.90;;;39.17;;
28607;SDS011;15802;45.654;13.804;2023-01-15T12:37:50;60.33;;;34.13;;
28607;SDS011;15802;45.654;13.804;2023-01-15T12:42:52;38.55;;;24.52;;
28607;SDS011;15802;45.654;13.804;2023-01-15T12:45:39;37.22;;;23.77;;
28607;SDS011;15802;45.654;13.804;2023-01-15T12:48:12;38.17;;;24.92;;
28607;SDS011;15802;45.654;13.804;2023-01-15T12:50:51;35.72;;;22.48;;
28607;SDS011;15802;45.654;13.804;2023-01-15T12:53:42;36.70;;;23.80;;
28607;SDS011;15802;45.654;13.804;2023-01-15T12:56:17;35.05;;;22.63;;
28607;SDS011;15802;45.654;13.804;2023-01-15T12:59:06;29.73;;;20.35;;
28607;SDS011;15802;45.654;13.804;2023-01-15T13:04:43;28.15;;;18.23;;
28607;SDS011;15802;45.654;13.804;2023-01-15T13:07:19;26.17;;;17.27;;
28607;SDS011;15802;45.654;13.804;2023-01-15T13:12:41;29.55;;;17.13;;
28607;SDS011;15802;45.654;13.804;2023-01-15T13:15:10;26.88;;;18.30;;
28607;SDS011;15802;45.654;13.804;2023-01-15T13:17:45;29.30;;;18.17;;
28607;SDS011;15802;45.654;13.804;2023-01-15T13:20:32;31.40;;;18.20;;
28607;SDS011;15802;45.654;13.804;2023-01-15T13:32:20;33.97;;;20.15;;
28607;SDS011;15802;45.654;13.804;2023-01-15T13:34:52;32.80;;;21.20;;
28607;SDS011;15802;45.654;13.804;2023-01-15T13:37:40;30.92;;;19.38;;
28607;SDS011;15802;45.654;13.804;2023-01-15T13:40:11;35.38;;;21.05;;
28607;SDS011;15802;45.654;13.804;2023-01-15T13:42:53;37.13;;;21.95;;
28607;SDS011;15802;45.654;13.804;2023-01-15T13:45:22;37.78;;;23.52;;
28607;SDS011;15802;45.654;13.804;2023-01-15T13:48:01;37.65;;;24.35;;
28607;SDS011;15802;45.654;13.804;2023-01-15T13:50:40;41.58;;;24.58;;
28607;SDS011;15802;45.654;13.804;2023-01-15T13:53:20;45.28;;;27.75;;
28607;SDS011;15802;45.654;13.804;2023-01-15T13:55:53;42.90;;;27.13;;
28607;SDS011;15802;45.654;13.804;2023-01-15T13:58:23;39.22;;;24.67;;
28607;SDS011;15802;45.654;13.804;2023-01-15T14:01:00;42.83;;;27.17;;
28607;SDS011;15802;45.654;13.804;2023-01-15T14:03:29;41.60;;;27.17;;
28607;SDS011;15802;45.654;13.804;2023-01-15T14:05:59;39.60;;;26.95;;
28607;SDS011;15802;45.654;13.804;2023-01-15T14:08:36;40.17;;;27.38;;
28607;SDS011;15802;45.654;13.804;2023-01-15T14:11:04;43.22;;;28.73;;
28607;SDS011;15802;45.654;13.804;2023-01-15T14:13:39;43.42;;;27.88;;
28607;SDS011;15802;45.654;13.804;2023-01-15T14:19:37;57.55;;;36.88;;
28607;SDS011;15802;45.654;13.804;2023-01-15T14:22:42;44.03;;;29.73;;
28607;SDS011;15802;45.654;13.804;2023-01-15T14:28:18;52.97;;;33.63;;
28607;SDS011;15802;45.654;13.804;2023-01-15T14:31:12;50.70;;;31.38;;
28607;SDS011;15802;45.654;13.804;2023-01-15T14:36:44;50.15;;;31.63;;
28607;SDS011;15802;45.654;13.804;2023-01-15T14:39:21;49.03;;;33.45;;
28607;SDS011;15802;45.654;13.804;2023-01-15T14:42:06;52.33;;;34.70;;
28607;SDS011;15802;45.654;13.804;2023-01-15T14:48:48;57.28;;;36.15;;
28607;SDS011;15802;45.654;13.804;2023-01-15T14:51:15;57.35;;;37.40;;
28607;SDS011;15802;45.654;13.804;2023-01-15T14:53:49;53.97;;;35.50;;
28607;SDS011;15802;45.654;13.804;2023-01-15T14:56:27;53.63;;;33.63;;
28607;SDS011;15802;45.654;13.804;2023-01-15T14:59:15;49.33;;;33.08;;
28607;SDS011;15802;45.654;13.804;2023-01-15T15:01:50;44.65;;;29.08;;
28607;SDS011;15802;45.654;13.804;2023-01-15T15:04:39;48.33;;;30.75;;
28607;SDS011;15802;45.654;13.804;2023-01-15T15:07:11;51.22;;;31.33;;
28607;SDS011;15802;45.654;13.804;2023-01-15T15:09:43;43.63;;;29.10;;
28607;SDS011;15802;45.654;13.804;2023-01-15T15:12:14;46.95;;;29.90;;
28607;SDS011;15802;45.654;13.804;2023-01-15T15:18:01;53.70;;;33.67;;
28607;SDS011;15802;45.654;13.804;2023-01-15T15:23:41;54.65;;;33.95;;
28607;SDS011;15802;45.654;13.804;2023-01-15T15:26:20;50.80;;;32.60;;
28607;SDS011;15802;45.654;13.804;2023-01-15T15:28:58;52.08;;;34.10;;
28607;SDS011;15802;45.654;13.804;2023-01-15T15:31:26;52.90;;;33.75;;
28607;SDS011;15802;45.654;13.804;2023-01-15T15:33:55;51.85;;;34.33;;
28607;SDS011;15802;45.654;13.804;2023-01-15T15:36:23;51.95;;;33.17;;
28607;SDS011;15802;45.654;13.804;2023-01-15T15:39:00;57.95;;;39.88;;
28607;SDS011;15802;45.654;13.804;2023-01-15T15:41:38;58.63;;;36.53;;
28607;SDS011;15802;45.654;13.804;2023-01-15T15:44:30;54.30;;;37.20;;
28607;SDS011;15802;45.654;13.804;2023-01-15T15:47:20;55.78;;;35.80;;
28607;SDS011;15802;45.654;13.804;2023-01-15T15:50:17;58.50;;;36.95;;
28607;SDS011;15802;45.654;13.804;2023-01-15T15:52:47;58.70;;;37.65;;
28607;SDS011;15802;45.654;13.804;2023-01-15T15:55:14;57.70;;;40.63;;
28607;SDS011;15802;45.654;13.804;2023-01-15T15:57:43;63.65;;;40.55;;
28607;SDS011;15802;45.654;13.804;2023-01-15T16:00:16;73.88;;;44.95;;
28607;SDS011;15802;45.654;13.804;2023-01-15T16:02:44;72.63;;;44.78;;
28607;SDS011;15802;45.654;13.804;2023-01-15T16:05:19;66.95;;;44.63;;
28607;SDS011;15802;45.654;13.804;2023-01-15T16:07:48;60.92;;;40.78;;
28607;SDS011;15802;45.654;13.804;2023-01-15T16:10:16;65.90;;;41.22;;
28607;SDS011;15802;45.654;13.804;2023-01-15T16:12:48;60.90;;;40.30;;
28607;SDS011;15802;45.654;13.804;2023-01-15T16:15:33;59.03;;;40.25;;